Morehead City, North Carolina
Current Conditions -  °F | °C
As of 2:58 AM on Friday 31 Oct 2014 (Local Time) from KMRH Reporting Station
Overcast Overcast  
Wind Chill: 58°   Ceiling: 4000
Heat Index: 58°   Visibility: 10mi
Dew Point: 51°   Wind: 7mph
Humidity: 78%   Direction: 30°NNE
Pressure: 29.91"   Gusts: NA
Location:  34.72°N, 76.72°W
Report Text: KMRH 310658Z AUTO 03006KT 10SM BKN040 OVC055 14/11 A2991 RMK AO2 SLP130 T01440106 TSNO
Loading
Personal Weather Stations






























Interactive Weather Map
Tropical Storm Tracking
New forecast layout! Learn more

10-Day Weather Forecast

Advertisements
Track Severe Weather on mobile